Time;durP1;ratioP1;P1;durP2;ratioP2;P2;SDS_P1;SDS_P2;PMS_P1;PMS_P2;Temp;Humidity;BMP_temperature;BMP_pressure;BME280_temperature;BME280_humidity;BME280_pressure;Samples;Min_cycle;Max_cycle;Signal;HPM_P1;HPM_P2
2022/11/23 00:00:02;;;;;;;6.66;1.92;;;;;;;1.55;92.76;100187.05;469493;113;922512;-74
2022/11/23 00:01:21;;;;;;;1.73;1.63;;;;;;;1.51;92.78;100183.02;469398;113;922498;-73
2022/11/23 00:02:24;;;;;;;1.80;1.70;;;;;;;1.49;92.86;100195.80;469394;113;922665;-74
2022/11/23 00:03:27;;;;;;;2.08;1.98;;;;;;;1.46;92.73;100190.73;469598;113;923446;-73
2022/11/23 00:04:30;;;;;;;1.82;1.72;;;;;;;1.44;92.82;100212.39;469590;112;922580;-74
2022/11/23 00:05:33;;;;;;;1.86;1.76;;;;;;;1.42;92.87;100200.98;469584;113;922473;-75
2022/11/23 00:06:36;;;;;;;1.82;1.72;;;;;;;1.42;92.91;100202.83;469614;113;923050;-75
2022/11/23 00:07:39;;;;;;;1.75;1.65;;;;;;;1.41;92.91;100206.52;469581;113;922402;-74
2022/11/23 00:08:43;;;;;;;1.96;1.86;;;;;;;1.39;93.05;100201.30;469645;113;922835;-74
2022/11/23 00:09:46;;;;;;;1.99;1.89;;;;;;;1.40;92.98;100220.95;469562;112;922711;-74
2022/11/23 00:10:49;;;;;;;1.85;1.75;;;;;;;1.36;92.96;100207.02;469610;113;922728;-75
2022/11/23 00:11:52;;;;;;;1.92;1.82;;;;;;;1.36;93.02;100206.17;469581;113;922839;-74
2022/11/23 00:12:55;;;;;;;1.77;1.69;;;;;;;1.34;93.02;100222.45;469631;113;922534;-75
2022/11/23 00:13:57;;;;;;;1.84;1.74;;;;;;;1.33;93.06;100211.86;469594;113;922521;-74
2022/11/23 00:15:00;;;;;;;1.86;1.76;;;;;;;1.31;93.26;100221.95;469636;113;922592;-74
2022/11/23 00:16:08;;;;;;;1.86;1.76;;;;;;;1.32;93.31;100224.47;469625;113;922514;-75
2022/11/23 00:17:11;;;;;;;1.88;1.78;;;;;;;1.31;93.27;100222.78;465928;113;922801;-75
2022/11/23 00:18:14;;;;;;;1.86;1.76;;;;;;;1.30;93.36;100221.09;465360;114;922991;-75
2022/11/23 00:19:17;;;;;;;2.12;2.02;;;;;;;1.30;93.31;100220.25;465241;114;922451;-75
2022/11/23 00:20:20;;;;;;;2.10;2.00;;;;;;;1.30;93.27;100220.25;465288;114;930269;-74
2022/11/23 00:21:25;;;;;;;2.02;1.92;;;;;;;1.30;93.29;100220.25;465327;114;922828;-73
2022/11/23 00:22:28;;;;;;;2.17;2.07;;;;;;;1.30;93.30;100231.00;468289;111;922700;-75
2022/11/23 00:23:30;;;;;;;1.87;1.77;;;;;;;1.32;93.40;100231.69;475484;111;930300;-74
2022/11/23 00:24:33;;;;;;;1.96;1.87;;;;;;;1.31;93.35;100233.53;475511;111;922464;-74
2022/11/23 00:25:36;;;;;;;2.33;2.23;;;;;;;1.32;93.36;100229.00;475526;111;922596;-75
2022/11/23 00:26:39;;;;;;;2.47;2.36;;;;;;;1.32;93.33;100237.06;475519;111;922602;-75
2022/11/23 00:27:42;;;;;;;2.47;2.33;;;;;;;1.30;93.44;100229.16;475518;111;922522;-75
2022/11/23 00:28:45;;;;;;;2.56;2.46;;;;;;;1.29;93.33;100243.58;475539;111;922481;-74
2022/11/23 00:29:48;;;;;;;3.02;2.83;;;;;;;1.29;93.52;100254.33;474605;111;922923;-74
2022/11/23 00:30:52;;;;;;;2.74;2.64;;;;;;;1.29;93.52;100254.33;470083;113;922475;-75
2022/11/23 00:31:54;;;;;;;2.52;2.42;;;;;;;1.30;93.66;100249.80;471408;111;922585;-75
2022/11/23 00:32:57;;;;;;;2.97;2.78;;;;;;;1.32;93.75;100245.96;467570;111;922803;-75
2022/11/23 00:34:01;;;;;;;2.98;2.80;;;;;;;1.34;93.61;100243.09;467044;113;922979;-73
2022/11/23 00:35:04;;;;;;;2.37;2.27;;;;;;;1.35;93.63;100253.67;466986;113;922529;-75
2022/11/23 00:36:13;;;;;;;2.77;2.67;;;;;;;1.36;93.60;100259.89;457687;116;930408;-75
2022/11/23 00:37:16;;;;;;;3.15;2.95;;;;;;;1.33;93.49;100260.20;458662;113;930295;-75
2022/11/23 00:38:19;;;;;;;2.80;2.65;;;;;;;1.30;93.65;100261.38;466993;113;922630;-74
2022/11/23 00:39:24;;;;;;;2.76;2.66;;;;;;;1.29;93.77;100267.75;457665;116;922633;-74
2022/11/23 00:40:27;;;;;;;2.91;2.77;;;;;;;1.27;93.80;100260.87;458114;113;922509;-75
2022/11/23 00:41:29;;;;;;;3.64;3.44;;;;;;;1.24;93.88;100262.03;457799;116;922610;-74
2022/11/23 00:42:33;;;;;;;3.92;3.72;;;;;;;1.20;93.94;100261.53;458120;113;922721;-75
2022/11/23 00:43:37;;;;;;;3.47;3.27;;;;;;;1.16;93.95;100270.05;466460;113;922565;-75
2022/11/23 00:44:42;;;;;;;3.55;3.35;;;;;;;1.11;93.98;100273.22;467009;113;922535;-76
2022/11/23 00:45:45;;;;;;;3.60;3.40;;;;;;;1.09;94.23;100264.50;467042;113;922455;-76
2022/11/23 00:46:48;;;;;;;3.96;3.76;;;;;;;1.09;94.27;100269.88;467035;113;922468;-76
2022/11/23 00:47:51;;;;;;;3.69;3.49;;;;;;;1.11;94.47;100272.38;464720;113;922526;-74
2022/11/23 00:48:55;;;;;;;3.51;3.31;;;;;;;1.12;94.56;100274.91;463318;114;923022;-74
2022/11/23 00:49:57;;;;;;;3.91;3.71;;;;;;;1.16;94.52;100280.78;455103;116;922634;-75
2022/11/23 00:51:03;;;;;;;3.99;3.79;;;;;;;1.18;94.58;100282.32;455511;114;922631;-75
2022/11/23 00:52:06;;;;;;;3.37;3.19;;;;;;;1.22;94.73;100277.45;463145;114;922567;-76
2022/11/23 00:53:09;;;;;;;3.95;3.75;;;;;;;1.22;94.59;100282.83;463364;114;922679;-74
2022/11/23 00:54:12;;;;;;;3.66;3.46;;;;;;;1.23;94.73;100277.30;455185;116;922759;-74
2022/11/23 00:55:15;;;;;;;3.98;3.77;;;;;;;1.23;94.61;100282.67;455365;114;922521;-73
2022/11/23 00:56:18;;;;;;;3.99;3.79;;;;;;;1.21;94.39;100292.72;463342;114;922744;-74
2022/11/23 00:57:21;;;;;;;4.32;4.09;;;;;;;1.18;94.34;100274.27;463332;114;922508;-74
2022/11/23 00:58:24;;;;;;;3.84;3.64;;;;;;;1.18;94.44;100286.84;455186;116;923097;-75
2022/11/23 00:59:28;;;;;;;3.93;3.73;;;;;;;1.16;94.51;100297.74;455464;114;924218;-75
2022/11/23 01:00:31;;;;;;;3.76;3.56;;;;;;;1.15;94.43;100290.72;463187;114;930547;-74
2022/11/23 01:01:37;;;;;;;4.21;4.01;;;;;;;1.15;94.46;100288.03;463265;114;930981;-74
2022/11/23 01:02:40;;;;;;;3.91;3.71;;;;;;;1.16;94.50;100288.84;463132;114;922561;-75
2022/11/23 01:03:46;;;;;;;4.08;3.88;;;;;;;1.18;94.68;100293.06;463296;114;922559;-74
2022/11/23 01:04:49;;;;;;;4.29;4.09;;;;;;;1.19;94.56;100291.22;463097;114;922889;-73
2022/11/23 01:05:52;;;;;;;4.90;4.60;;;;;;;1.20;94.60;100303.66;463334;114;922494;-73
2022/11/23 01:06:56;;;;;;;4.35;4.12;;;;;;;1.19;94.65;100297.44;463220;114;922646;-74
2022/11/23 01:07:59;;;;;;;4.60;4.40;;;;;;;1.18;94.70;100295.75;463320;114;922512;-74
2022/11/23 01:09:05;;;;;;;4.99;4.70;;;;;;;1.18;94.72;100294.91;463306;114;922474;-73
2022/11/23 01:10:08;;;;;;;4.78;4.48;;;;;;;1.17;94.62;100295.90;463089;114;922792;-72
2022/11/23 01:11:11;;;;;;;5.37;5.07;;;;;;;1.16;94.66;100297.74;463298;114;922756;-72
2022/11/23 01:12:15;;;;;;;4.50;4.30;;;;;;;1.16;94.75;100292.38;463262;114;922508;-75
2022/11/23 01:13:17;;;;;;;4.87;4.62;;;;;;;1.20;94.75;100295.59;463265;114;922507;-74
2022/11/23 01:14:22;;;;;;;5.00;4.74;;;;;;;1.22;94.81;100294.41;463345;114;922616;-74
2022/11/23 01:15:25;;;;;;;4.92;4.62;;;;;;;1.27;94.98;100298.48;463278;114;922474;-77
2022/11/23 01:16:32;;;;;;;5.00;4.70;;;;;;;1.30;94.96;100304.36;464189;112;922411;-75
2022/11/23 01:17:35;;;;;;;4.94;4.65;;;;;;;1.34;94.96;100299.49;471249;112;930437;-73
2022/11/23 01:18:38;;;;;;;5.19;4.89;;;;;;;1.36;94.84;100317.14;471541;112;922446;-73
2022/11/23 01:19:41;;;;;;;5.10;4.80;;;;;;;1.36;94.77;100303.71;471548;112;922581;-74
2022/11/23 01:20:44;;;;;;;6.05;5.71;;;;;;;1.35;94.78;100307.39;471595;112;922824;-74
2022/11/23 01:21:47;;;;;;;5.39;5.09;;;;;;;1.33;94.64;100313.91;471615;112;922562;-74
2022/11/23 01:22:52;;;;;;;5.58;5.28;;;;;;;1.30;94.69;100314.25;471574;112;922452;-76
2022/11/23 01:23:55;;;;;;;5.85;5.55;;;;;;;1.29;94.93;100312.56;471491;112;922413;-74
2022/11/23 01:24:58;;;;;;;5.34;5.04;;;;;;;1.28;94.92;100306.35;471559;112;922575;-73
2022/11/23 01:26:06;;;;;;;5.97;5.67;;;;;;;1.29;94.91;100313.41;471640;112;922533;-74
2022/11/23 01:27:09;;;;;;;5.63;5.33;;;;;;;1.27;94.84;100310.03;471393;112;922570;-74
2022/11/23 01:28:12;;;;;;;5.59;5.29;;;;;;;1.28;94.86;100321.63;471575;112;922564;-74
2022/11/23 01:29:15;;;;;;;6.11;5.81;;;;;;;1.27;94.98;100323.46;471568;112;922955;-74
2022/11/23 01:30:18;;;;;;;6.48;6.08;;;;;;;1.28;95.03;100321.63;466900;112;922479;-74
2022/11/23 01:31:22;;;;;;;5.46;5.16;;;;;;;1.29;94.95;100323.31;464295;113;922824;-73
2022/11/23 01:32:25;;;;;;;5.52;5.22;;;;;;;1.29;94.93;100315.25;466229;112;922544;-75
2022/11/23 01:33:28;;;;;;;5.64;5.29;;;;;;;1.30;95.10;100327.69;467402;112;930482;-75
2022/11/23 01:34:31;;;;;;;5.74;5.44;;;;;;;1.33;95.22;100330.03;467195;113;922568;-75
2022/11/23 01:35:35;;;;;;;5.64;5.34;;;;;;;1.37;95.21;100326.89;467219;113;922773;-74
2022/11/23 01:36:38;;;;;;;5.35;5.05;;;;;;;1.41;95.21;100330.08;467157;113;922489;-75
2022/11/23 01:37:41;;;;;;;5.79;5.49;;;;;;;1.43;95.20;100330.77;467193;113;923164;-74
2022/11/23 01:38:46;;;;;;;6.21;5.91;;;;;;;1.44;95.17;100335.11;467263;113;922457;-74
2022/11/23 01:39:49;;;;;;;5.76;5.43;;;;;;;1.46;95.12;100335.80;467097;113;922519;-74
2022/11/23 01:40:52;;;;;;;5.40;5.09;;;;;;;1.47;95.08;100341.02;467225;113;922496;-73
2022/11/23 01:41:55;;;;;;;5.70;5.40;;;;;;;1.48;95.09;100348.09;467252;113;922439;-73
2022/11/23 01:43:00;;;;;;;5.33;5.01;;;;;;;1.48;94.93;100349.93;467257;113;922544;-74
2022/11/23 01:44:22;;;;;;;6.06;5.71;;;;;;;1.45;94.99;100345.70;467063;113;922571;-74
2022/11/23 01:45:33;;;;;;;6.31;5.93;;;;;;;1.45;94.92;100345.70;466868;113;922704;-73
2022/11/23 01:46:36;;;;;;;6.36;5.99;;;;;;;1.44;95.07;100345.86;467037;113;922498;-73
2022/11/23 01:47:40;;;;;;;6.51;6.10;;;;;;;1.44;95.07;100353.92;467375;111;923001;-74
2022/11/23 01:48:52;;;;;;;6.04;5.74;;;;;;;1.42;94.94;100362.16;475695;111;922803;-74
2022/11/23 01:49:55;;;;;;;6.50;6.11;;;;;;;1.42;94.94;100361.32;475279;111;922465;-73
2022/11/23 01:51:01;;;;;;;5.82;5.52;;;;;;;1.42;94.90;100364.00;475629;111;922470;-74
2022/11/23 01:52:08;;;;;;;5.93;5.63;;;;;;;1.42;94.93;100364.00;475446;111;922509;-74
2022/11/23 01:53:11;;;;;;;6.08;5.78;;;;;;;1.41;94.87;100370.38;475439;111;922625;-74
2022/11/23 01:54:18;;;;;;;6.36;6.06;;;;;;;1.41;94.87;100370.38;475648;111;922482;-75
2022/11/23 01:55:20;;;;;;;6.52;6.13;;;;;;;1.41;94.89;100367.69;475435;111;922453;-76
2022/11/23 01:56:27;;;;;;;6.41;6.05;;;;;;;1.41;94.85;100370.38;475663;111;922421;-76
2022/11/23 01:57:33;;;;;;;6.37;6.03;;;;;;;1.40;94.84;100369.53;475477;111;922515;-75
2022/11/23 01:58:40;;;;;;;6.19;5.89;;;;;;;1.39;94.96;100367.84;463001;114;922984;-76
2022/11/23 01:59:44;;;;;;;6.84;6.44;;;;;;;1.40;94.97;100360.62;463258;114;922561;-77
2022/11/23 02:00:48;;;;;;;6.37;5.97;;;;;;;1.39;94.94;100377.73;463324;114;922900;-75
2022/11/23 02:01:52;;;;;;;6.97;6.57;;;;;;;1.38;94.91;100365.34;463268;114;930974;-77
2022/11/23 02:02:57;;;;;;;6.28;5.97;;;;;;;1.37;94.75;100374.39;463446;114;922471;-76
2022/11/23 02:04:01;;;;;;;6.89;6.49;;;;;;;1.34;94.84;100372.86;463221;114;922588;-75
2022/11/23 02:05:05;;;;;;;7.15;6.74;;;;;;;1.32;94.88;100369.51;463386;114;923004;-78
2022/11/23 02:06:15;;;;;;;6.96;6.56;;;;;;;1.33;94.98;100364.95;463438;114;922474;-78
2022/11/23 02:07:20;;;;;;;6.49;6.12;;;;;;;1.35;95.04;100371.02;463269;114;922838;-77
2022/11/23 02:08:23;;;;;;;7.02;6.58;;;;;;;1.35;94.94;100371.02;463312;114;922568;-79
2022/11/23 02:09:28;;;;;;;6.94;6.50;;;;;;;1.34;94.91;100367.48;463479;114;922679;-78
2022/11/23 02:10:34;;;;;;;6.65;6.31;;;;;;;1.34;94.93;100369.33;463296;114;922527;-75
2022/11/23 02:11:37;;;;;;;7.27;6.87;;;;;;;1.32;94.77;100376.72;463395;114;922508;-75
2022/11/23 02:12:40;;;;;;;7.84;7.35;;;;;;;1.32;94.97;100374.03;455465;116;922505;-75
2022/11/23 02:13:46;;;;;;;8.71;8.20;;;;;;;1.33;94.98;100389.13;463459;114;922437;-75
2022/11/23 02:14:49;;;;;;;7.76;7.33;;;;;;;1.34;94.90;100380.07;456577;114;922626;-74
2022/11/23 02:15:54;;;;;;;8.05;7.58;;;;;;;1.33;95.04;100373.85;471195;112;922519;-74
2022/11/23 02:16:58;;;;;;;8.46;7.96;;;;;;;1.35;94.98;100376.38;460334;114;922465;-74
2022/11/23 02:18:04;;;;;;;8.95;8.45;;;;;;;1.35;95.07;100387.98;456933;116;922527;-74
2022/11/23 02:19:27;;;;;;;8.60;8.09;;;;;;;1.36;94.96;100386.13;463747;114;922817;-74
2022/11/23 02:20:32;;;;;;;9.10;8.60;;;;;;;1.35;95.03;100373.70;463784;114;922625;-74
2022/11/23 02:21:35;;;;;;;8.86;8.36;;;;;;;1.36;95.04;100383.45;463980;114;923096;-73
2022/11/23 02:23:05;;;;;;;9.46;8.83;;;;;;;1.36;95.05;100378.92;463956;114;923055;-76
2022/11/23 02:24:15;;;;;;;9.80;9.20;;;;;;;1.37;95.08;100366.33;463731;114;922681;-72
2022/11/23 02:25:30;;;;;;;10.54;9.91;;;;;;;1.36;95.15;100392.34;451992;114;923227;-74
2022/11/23 02:26:35;;;;;;;10.89;10.18;;;;;;;1.36;95.26;100375.39;454940;114;922547;-75
2022/11/23 02:27:39;;;;;;;10.35;9.75;;;;;;;1.35;95.34;100377.23;462126;114;922543;-75
2022/11/23 02:28:48;;;;;;;10.54;9.94;;;;;;;1.35;95.39;100381.76;461513;114;922645;-73
2022/11/23 02:29:52;;;;;;;10.61;9.91;;;;;;;1.35;95.25;100374.55;461871;114;922609;-74
2022/11/23 02:30:55;;;;;;;10.32;9.67;;;;;;;1.35;95.26;100376.38;460975;115;923008;-74
2022/11/23 02:31:59;;;;;;;10.79;10.11;;;;;;;1.34;95.28;100394.34;461107;115;922502;-75
2022/11/23 02:33:05;;;;;;;10.68;10.08;;;;;;;1.34;95.28;100386.28;458744;114;922424;-74
2022/11/23 02:34:08;;;;;;;10.66;10.06;;;;;;;1.35;95.33;100389.81;460933;115;922617;-75
2022/11/23 02:35:11;;;;;;;11.30;10.58;;;;;;;1.36;95.37;100389.66;461184;115;922610;-74
2022/11/23 02:36:23;;;;;;;10.59;9.95;;;;;;;1.38;95.38;100386.83;461126;115;922522;-73
2022/11/23 02:37:27;;;;;;;10.91;10.21;;;;;;;1.37;95.45;100390.52;460690;115;922577;-74
2022/11/23 02:38:32;;;;;;;11.53;10.82;;;;;;;1.37;95.39;100391.35;461167;115;923007;-75
2022/11/23 02:39:38;;;;;;;11.29;10.64;;;;;;;1.37;95.33;100391.35;460996;115;922535;-74
2022/11/23 02:40:42;;;;;;;10.65;10.05;;;;;;;1.38;95.29;100402.95;460958;115;922557;-73
2022/11/23 02:41:48;;;;;;;11.22;10.12;;;;;;;1.39;95.33;100393.86;461193;115;922532;-74
2022/11/23 02:42:51;;;;;;;10.64;10.01;;;;;;;1.39;95.26;100388.48;460939;115;922571;-75
2022/11/23 02:43:56;;;;;;;10.66;10.00;;;;;;;1.39;95.23;100397.39;461027;113;922582;-75
2022/11/23 02:45:09;;;;;;;11.43;10.75;;;;;;;1.39;95.28;100391.17;460992;115;922489;-75
2022/11/23 02:46:13;;;;;;;10.78;10.09;;;;;;;1.39;95.25;100385.80;459295;115;922803;-76
2022/11/23 02:47:16;;;;;;;11.54;10.84;;;;;;;1.39;95.27;100393.86;461141;115;922462;-73
2022/11/23 02:48:19;;;;;;;10.98;10.28;;;;;;;1.39;95.26;100393.86;461123;114;922920;-73
2022/11/23 02:49:23;;;;;;;10.66;10.06;;;;;;;1.39;95.32;100388.48;461166;115;922567;-75
2022/11/23 02:50:26;;;;;;;10.39;9.70;;;;;;;1.40;95.32;100408.98;461049;115;922900;-76
2022/11/23 02:51:29;;;;;;;9.59;9.01;;;;;;;1.39;95.34;100394.70;461036;115;922495;-77
2022/11/23 02:52:32;;;;;;;10.12;9.52;;;;;;;1.40;95.36;100391.02;461152;115;922444;-75
2022/11/23 02:53:35;;;;;;;10.24;9.65;;;;;;;1.41;95.37;100399.92;461124;113;923000;-77
2022/11/23 02:54:38;;;;;;;9.78;9.18;;;;;;;1.41;95.49;100381.97;461125;115;922516;-77
2022/11/23 02:55:42;;;;;;;9.55;8.95;;;;;;;1.44;95.63;100378.09;461164;115;922487;-76
2022/11/23 02:56:45;;;;;;;8.95;8.45;;;;;;;1.44;95.52;100383.47;461143;115;922525;-76
2022/11/23 02:57:48;;;;;;;9.15;8.62;;;;;;;1.44;95.61;100381.62;461083;115;922512;-76
2022/11/23 02:58:51;;;;;;;9.04;8.46;;;;;;;1.45;95.54;100387.84;461190;113;922566;-76
2022/11/23 02:59:54;;;;;;;8.75;8.22;;;;;;;1.45;95.62;100394.06;461128;115;922575;-77
2022/11/23 03:00:57;;;;;;;8.51;7.96;;;;;;;1.44;95.58;100389.69;461135;115;922829;-77
2022/11/23 03:02:02;;;;;;;8.51;8.01;;;;;;;1.43;95.61;100396.09;461137;115;923150;-76
2022/11/23 03:03:05;;;;;;;8.34;7.86;;;;;;;1.43;95.51;100393.41;461123;115;922528;-76
2022/11/23 03:04:09;;;;;;;7.59;7.19;;;;;;;1.44;95.63;100396.91;461577;115;930308;-76
2022/11/23 03:05:12;;;;;;;7.36;6.92;;;;;;;1.44;95.62;100394.22;461512;115;922680;-76
2022/11/23 03:06:15;;;;;;;7.29;6.82;;;;;;;1.43;95.54;100403.30;461596;115;922498;-77
2022/11/23 03:07:18;;;;;;;7.37;6.92;;;;;;;1.43;95.64;100406.84;461633;115;922416;-77
2022/11/23 03:08:23;;;;;;;7.91;7.41;;;;;;;1.44;95.67;100410.33;453878;117;922874;-76
2022/11/23 03:09:27;;;;;;;7.56;7.12;;;;;;;1.45;95.66;100403.97;454288;115;930285;-75
2022/11/23 03:10:30;;;;;;;7.19;6.79;;;;;;;1.44;95.64;100403.12;461838;115;923158;-75
2022/11/23 03:11:33;;;;;;;7.26;6.86;;;;;;;1.45;95.52;100412.02;461766;115;922502;-76
2022/11/23 03:12:37;;;;;;;7.87;7.41;;;;;;;1.45;95.48;100414.70;461645;115;922403;-76
2022/11/23 03:13:41;;;;;;;6.78;6.37;;;;;;;1.44;95.46;100407.64;450304;116;922510;-76
2022/11/23 03:14:44;;;;;;;7.18;6.78;;;;;;;1.43;95.51;100393.41;450824;115;922414;-75
2022/11/23 03:15:47;;;;;;;6.96;6.56;;;;;;;1.44;95.59;100411.17;462228;115;922015;-75
2022/11/23 03:16:50;;;;;;;6.72;6.32;;;;;;;1.45;95.49;100409.34;458955;115;922376;-75
2022/11/23 03:17:56;;;;;;;6.51;6.11;;;;;;;1.45;95.49;100406.65;455172;117;922121;-75
2022/11/23 03:18:59;;;;;;;6.46;6.09;;;;;;;1.45;95.46;100409.34;454875;117;922159;-76
2022/11/23 03:20:03;;;;;;;6.73;6.24;;;;;;;1.44;95.47;100397.75;455034;117;922253;-76
2022/11/23 03:21:07;;;;;;;6.48;6.08;;;;;;;1.44;95.43;100403.12;459876;115;922189;-75
2022/11/23 03:22:12;;;;;;;5.98;5.61;;;;;;;1.44;95.43;100413.02;460432;115;922131;-76
2022/11/23 03:23:15;;;;;;;6.28;5.89;;;;;;;1.43;95.43;100403.30;458485;116;930155;-76
2022/11/23 03:24:19;;;;;;;6.76;6.28;;;;;;;1.42;95.38;100415.05;458581;116;922237;-76
2022/11/23 03:25:22;;;;;;;6.32;5.92;;;;;;;1.42;95.49;100423.10;458433;116;922326;-76
2022/11/23 03:26:27;;;;;;;6.27;5.87;;;;;;;1.40;95.38;100422.41;458415;115;922962;-76
2022/11/23 03:27:33;;;;;;;6.52;6.14;;;;;;;1.37;95.33;100425.43;458217;115;922075;-76
2022/11/23 03:28:36;;;;;;;6.33;5.91;;;;;;;1.36;95.39;100421.89;458504;116;922145;-75
2022/11/23 03:29:39;;;;;;;6.27;5.87;;;;;;;1.38;95.52;100422.56;458887;115;922066;-75
2022/11/23 03:30:44;;;;;;;5.90;5.57;;;;;;;1.40;95.57;100438.53;461897;115;921964;-76
2022/11/23 03:31:47;;;;;;;6.27;5.87;;;;;;;1.42;95.64;100415.05;462214;115;922146;-75
2022/11/23 03:32:51;;;;;;;5.54;5.24;;;;;;;1.44;95.62;100421.08;453147;117;922407;-76
2022/11/23 03:33:54;;;;;;;5.57;5.22;;;;;;;1.44;95.56;100429.98;456185;116;922335;-76
2022/11/23 03:34:58;;;;;;;6.57;6.17;;;;;;;1.43;95.52;100422.95;448236;118;922317;-76
2022/11/23 03:36:02;;;;;;;6.11;5.71;;;;;;;1.43;95.50;100427.48;448762;116;922532;-75
2022/11/23 03:37:06;;;;;;;6.18;5.78;;;;;;;1.42;95.60;100428.48;456054;116;922245;-76
2022/11/23 03:38:10;;;;;;;5.96;5.61;;;;;;;1.41;95.54;100435.69;456396;116;922142;-76
2022/11/23 03:39:13;;;;;;;6.02;5.72;;;;;;;1.41;95.67;100433.00;456369;116;922200;-77
2022/11/23 03:40:18;;;;;;;5.79;5.49;;;;;;;1.42;95.73;100445.44;435777;116;922749;-77
2022/11/23 03:41:25;;;;;;;5.97;5.62;;;;;;;1.43;95.68;100433.70;448351;116;922676;-75
2022/11/23 03:42:29;;;;;;;6.57;6.11;;;;;;;1.45;95.72;100449.63;455449;116;922938;-74
2022/11/23 03:43:32;;;;;;;6.16;5.76;;;;;;;1.46;95.68;100444.11;455443;116;930870;-76
2022/11/23 03:44:35;;;;;;;5.92;5.62;;;;;;;1.46;95.53;100440.58;455480;116;922488;-76
2022/11/23 03:45:40;;;;;;;6.27;5.94;;;;;;;1.45;95.67;100446.95;447333;118;922638;-75
2022/11/23 03:46:44;;;;;;;6.59;6.19;;;;;;;1.47;95.62;100442.27;447797;116;930467;-75
2022/11/23 03:47:47;;;;;;;6.01;5.68;;;;;;;1.49;95.61;100440.28;455313;116;922808;-75
2022/11/23 03:48:50;;;;;;;7.01;6.55;;;;;;;1.51;95.60;100439.09;455189;116;923559;-76
2022/11/23 03:49:53;;;;;;;6.77;6.37;;;;;;;1.51;95.66;100441.78;446990;118;922541;-74
2022/11/23 03:50:56;;;;;;;6.81;6.41;;;;;;;1.53;95.71;100447.00;447354;116;923053;-75
2022/11/23 03:51:59;;;;;;;6.50;6.09;;;;;;;1.54;95.56;100446.01;454937;116;922484;-76
2022/11/23 03:53:03;;;;;;;6.21;5.81;;;;;;;1.52;95.47;100443.47;455019;116;923457;-75
2022/11/23 03:54:06;;;;;;;6.49;6.09;;;;;;;1.52;95.58;100443.47;454941;116;922571;-76
2022/11/23 03:55:09;;;;;;;6.17;5.78;;;;;;;1.53;95.50;100457.75;454896;116;923008;-75
2022/11/23 03:56:12;;;;;;;6.96;6.53;;;;;;;1.54;95.63;100459.45;454929;116;922353;-75
2022/11/23 03:57:17;;;;;;;6.57;6.17;;;;;;;1.55;95.62;100459.27;454766;116;930490;-76
2022/11/23 03:58:20;;;;;;;6.29;5.92;;;;;;;1.55;95.46;100469.16;455028;116;922511;-76
2022/11/23 03:59:24;;;;;;;6.39;5.97;;;;;;;1.54;95.43;100472.88;454913;116;922438;-77
2022/11/23 04:00:29;;;;;;;6.96;6.56;;;;;;;1.52;95.49;100458.75;454862;116;930456;-76
2022/11/23 04:01:32;;;;;;;6.29;5.89;;;;;;;1.52;95.42;100459.59;446838;118;930570;-77
2022/11/23 04:02:37;;;;;;;6.76;6.36;;;;;;;1.53;95.42;100463.97;447341;116;922963;-76
2022/11/23 04:03:42;;;;;;;6.64;6.24;;;;;;;1.54;95.49;100457.61;454743;116;922443;-76
2022/11/23 04:04:52;;;;;;;7.04;6.64;;;;;;;1.56;95.54;100454.73;454209;116;922764;-75
2022/11/23 04:06:00;;;;;;;6.67;6.27;;;;;;;1.57;95.47;100459.11;451793;116;930474;-74
2022/11/23 04:07:10;;;;;;;7.16;6.70;;;;;;;1.59;95.48;100463.34;452451;114;922502;-76
2022/11/23 04:08:15;;;;;;;5.94;5.54;;;;;;;1.61;95.47;100457.78;462676;114;922513;-76
2022/11/23 04:09:18;;;;;;;6.35;5.96;;;;;;;1.63;95.50;100469.22;464379;114;922398;-77
2022/11/23 04:10:23;;;;;;;5.88;5.56;;;;;;;1.60;95.36;100464.99;460800;114;922438;-76
2022/11/23 04:11:28;;;;;;;6.81;6.41;;;;;;;1.58;95.32;100464.33;463218;114;922545;-75
2022/11/23 04:12:32;;;;;;;6.41;6.01;;;;;;;1.56;95.23;100471.70;456105;116;923092;-75
2022/11/23 04:13:35;;;;;;;6.47;6.08;;;;;;;1.56;95.34;100466.33;456485;114;923372;-76
2022/11/23 04:14:38;;;;;;;6.37;5.97;;;;;;;1.55;95.24;100466.48;464443;114;922915;-75
2022/11/23 04:15:41;;;;;;;6.27;5.90;;;;;;;1.55;95.27;100464.63;464460;114;922477;-75
2022/11/23 04:16:44;;;;;;;6.44;6.04;;;;;;;1.57;95.29;100472.55;462756;114;922851;-75
2022/11/23 04:17:47;;;;;;;5.94;5.56;;;;;;;1.58;95.33;100469.70;464504;114;922512;-75
2022/11/23 04:18:50;;;;;;;6.33;5.93;;;;;;;1.59;95.34;100470.55;464485;114;922971;-77
2022/11/23 04:19:54;;;;;;;6.37;5.97;;;;;;;1.61;95.49;100481.96;464477;114;922705;-74
2022/11/23 04:20:56;;;;;;;7.13;6.63;;;;;;;1.63;95.39;100482.66;464491;114;923204;-75
2022/11/23 04:22:00;;;;;;;5.60;5.26;;;;;;;1.63;95.39;100480.81;464459;114;922502;-75
2022/11/23 04:23:04;;;;;;;6.31;5.91;;;;;;;1.64;95.37;100471.76;464289;114;922868;-76
2022/11/23 04:24:09;;;;;;;6.65;6.25;;;;;;;1.66;95.36;100487.70;463527;114;923500;-76
2022/11/23 04:25:12;;;;;;;6.84;6.37;;;;;;;1.66;95.39;100471.58;456266;116;922543;-76
2022/11/23 04:26:15;;;;;;;6.14;5.76;;;;;;;1.67;95.45;100479.48;456585;114;922675;-76
2022/11/23 04:27:20;;;;;;;5.97;5.57;;;;;;;1.71;95.39;100482.69;464365;114;922475;-77
2022/11/23 04:28:23;;;;;;;5.49;5.19;;;;;;;1.72;95.43;100475.47;464449;114;922564;-75
2022/11/23 04:29:27;;;;;;;6.43;6.03;;;;;;;1.70;95.29;100486.41;464366;114;922480;-76
2022/11/23 04:30:30;;;;;;;6.12;5.76;;;;;;;1.70;95.24;100481.03;457632;114;922559;-76
2022/11/23 04:31:33;;;;;;;6.35;5.95;;;;;;;1.69;95.08;100482.02;450768;117;922620;-75
2022/11/23 04:32:47;;;;;;;6.37;5.97;;;;;;;1.68;95.07;100491.93;453991;116;922526;-75
2022/11/23 04:33:50;;;;;;;5.51;5.21;;;;;;;1.69;95.20;100479.33;454577;116;922576;-77
2022/11/23 04:34:54;;;;;;;6.54;6.04;;;;;;;1.69;95.08;100476.65;444709;119;922610;-75
2022/11/23 04:35:57;;;;;;;5.79;5.39;;;;;;;1.68;95.01;100485.70;445177;116;922916;-76
2022/11/23 04:37:00;;;;;;;6.59;6.19;;;;;;;1.67;95.02;100482.17;454618;116;922562;-76
2022/11/23 04:38:05;;;;;;;6.40;6.00;;;;;;;1.66;95.04;100483.17;454181;116;922610;-75
2022/11/23 04:39:09;;;;;;;5.93;5.53;;;;;;;1.68;95.17;100483.02;454572;116;922610;-74
2022/11/23 04:40:16;;;;;;;6.62;6.22;;;;;;;1.68;95.05;100481.17;453518;116;922546;-75
2022/11/23 04:41:26;;;;;;;7.08;6.58;;;;;;;1.68;95.07;100489.23;453510;116;923046;-75
2022/11/23 04:42:29;;;;;;;6.67;6.28;;;;;;;1.70;95.06;100493.62;454541;116;930599;-74
2022/11/23 04:43:34;;;;;;;6.64;6.23;;;;;;;1.70;95.01;100494.47;454465;116;922580;-74
2022/11/23 04:44:37;;;;;;;6.82;6.42;;;;;;;1.71;94.98;100501.50;444632;119;930610;-75
2022/11/23 08:02:59;;;;;;;7.56;7.06;;;;;;;1.82;100.00;100659.02;473811;110;947111;-76
2022/11/23 08:04:05;;;;;;;7.21;6.78;;;;;;;1.76;99.69;100663.17;462470;114;922620;-77
2022/11/23 08:05:08;;;;;;;7.01;6.61;;;;;;;1.80;99.38;100653.78;465651;114;922523;-76
2022/11/23 08:06:14;;;;;;;7.04;6.64;;;;;;;1.83;99.14;100656.14;464945;114;922534;-76
2022/11/23 08:07:17;;;;;;;6.78;6.37;;;;;;;1.87;98.96;100657.54;465550;113;922869;-74
2022/11/23 08:08:20;;;;;;;6.44;6.04;;;;;;;1.89;98.76;100655.52;465709;114;922659;-74
2022/11/23 08:09:23;;;;;;;6.74;6.34;;;;;;;1.92;98.61;100657.06;465694;114;922588;-74
2022/11/23 08:10:30;;;;;;;7.27;6.77;;;;;;;1.93;98.55;100653.38;465665;114;922584;-75
2022/11/23 08:11:33;;;;;;;7.24;6.74;;;;;;;1.96;98.34;100651.20;465569;114;922715;-74
2022/11/23 08:12:36;;;;;;;7.03;6.61;;;;;;;1.97;98.24;100647.52;466351;113;922299;-77
2022/11/23 08:13:39;;;;;;;7.24;6.82;;;;;;;2.00;98.07;100659.79;458903;114;922189;-75
2022/11/23 08:14:42;;;;;;;7.64;7.17;;;;;;;2.01;98.02;100658.80;456929;116;923091;-75
2022/11/23 08:15:45;;;;;;;6.83;6.42;;;;;;;2.01;97.80;100658.80;457021;116;922412;-76